Latest Weather Observations for Sheffield

IDT60801

Issued at 5:02 am EDT Tuesday 27 January 2015 (issued every 30 minutes, with the page automatically refreshed every 10 minutes)

About weather observations | Map of weather stations | Latest weather observations for TAS | Other Formats
Station Details ID: 091291 Name: SHEFFIELD SCHOOL FARM Lat: -41.39 Lon: 146.32 Height: 294.2 m
Data from the previous 72 hours. | See also: Recent months at Sheffield
Date/Time
EDT
Temp
°C
App
Temp
°C
Dew
Point
Rel
Hum
%
Delta-T
°C
Wind Press
QNH
hPa
Press
MSL
hPa
Rain
since 9 am
mm
Dir
 
Spd
km/h
Gust
km/h
Spd
kts
Gust
kts
27/05:00am 6.8 5.3 2.9 76 1.7 CALM 0 0 0 0 1015.6 1015.0 0.0
27/04:30am 6.9 5.4 3.0 76 1.7 CALM 0 2 0 1 1015.6 1015.0 0.0
27/04:00am 7.3 5.7 2.6 72 2.0 CALM 0 0 0 0 1015.8 1015.2 0.0
27/03:30am 7.0 4.7 2.9 75 1.7 SSE 4 4 2 2 1015.7 1015.1 0.0
27/03:00am 7.4 4.6 2.9 73 1.9 SW 7 7 4 4 1015.8 1015.2 0.0
27/02:30am 8.1 6.2 2.8 69 2.3 SSW 2 6 1 3 1016.0 1015.4 0.0
27/02:00am 8.4 5.7 2.8 68 2.4 WSW 6 6 3 3 1016.1 1015.5 0.0
27/01:30am 8.6 5.9 2.8 67 2.5 WSW 6 6 3 3 1016.1 1015.5 0.0
27/01:00am 7.8 5.1 2.7 70 2.2 S 6 7 3 4 1016.2 1015.6 0.0
27/12:30am 8.5 6.2 2.7 67 2.5 WSW 4 6 2 3 1016.3 1015.7 0.0
27/12:00am 8.6 5.7 2.6 66 2.6 W 7 9 4 5 1016.2 1015.6 0.0
 
Date/Time
EDT
Temp
°C
App
Temp
°C
Dew
Point
Rel
Hum
%
Delta-T
°C
Wind Press
QNH
hPa
Press
MSL
hPa
Rain
since 9 am
mm
Dir
 
Spd
km/h
Gust
km/h
Spd
kts
Gust
kts
26/11:30pm 9.4 6.6 2.3 61 3.0 W 6 7 3 4 1016.2 1015.6 0.0
26/11:00pm 10.5 8.6 2.6 58 3.4 WSW 2 6 1 3 1016.1 1015.5 0.0
26/10:30pm 9.8 7.8 2.4 60 3.2 SSW 2 4 1 2 1016.1 1015.5 0.0
26/10:00pm 10.5 7.6 2.6 58 3.4 W 7 9 4 5 1015.7 1015.1 0.0
26/09:30pm 11.0 8.1 2.6 56 3.7 W 7 9 4 5 1015.4 1014.9 0.0
26/09:00pm 12.2 9.3 2.4 51 4.3 WNW 7 13 4 7 1015.0 1014.5 0.0
26/08:30pm 13.0 9.3 2.3 48 4.7 WSW 11 19 6 10 1014.7 1014.1 0.0
26/08:00pm 14.9 9.4 2.1 42 5.7 WSW 20 26 11 14 1014.4 1013.8 0.0
26/07:30pm 16.0 10.7 1.7 38 6.4 WSW 19 28 10 15 1014.1 1013.5 0.0
26/07:00pm 16.6 11.2 1.5 36 6.8 WSW 19 28 10 15 1013.9 1013.3 0.0
26/06:30pm 17.4 12.0 2.2 36 7.0 WSW 20 32 11 17 1013.8 1013.2 0.0
26/06:00pm 17.4 12.0 2.6 37 6.9 WSW 20 28 11 15 1013.7 1013.1 0.0
26/05:30pm 17.6 12.2 2.4 36 7.0 WSW 20 32 11 17 1013.8 1013.2 0.0
26/05:00pm 17.8 12.6 3.3 38 6.8 WSW 20 32 11 17 1013.8 1013.2 0.0
26/04:30pm 17.3 11.5 2.5 37 6.8 SW 22 32 12 17 1014.0 1013.4 0.0
26/04:00pm 19.1 14.1 3.7 36 7.4 SW 19 28 10 15 1013.9 1013.3 0.0
26/03:30pm 17.8 13.1 2.9 37 7.0 WSW 17 26 9 14 1013.9 1013.3 0.0
26/03:00pm 18.8 13.1 3.0 35 7.5 WSW 22 32 12 17 1013.7 1013.1 0.0
26/02:30pm 18.2 13.4 2.5 35 7.3 SW 17 28 9 15 1013.8 1013.2 0.0
26/02:00pm 17.9 11.9 3.4 38 6.8 SW 24 33 13 18 1014.2 1013.6 0.0
26/01:30pm 16.9 11.8 3.9 42 6.2 SW 20 32 11 17 1014.3 1013.7 0.0
26/01:00pm 17.2 11.5 4.9 44 6.0 SW 24 33 13 18 1014.3 1013.7 0.0
26/12:30pm 16.0 10.7 5.0 48 5.3 W 22 33 12 18 1014.3 1013.7 0.0
26/12:00pm 16.4 10.6 4.4 45 5.7 WSW 24 37 13 20 1014.3 1013.7 0.0
26/11:30am 15.5 9.9 3.3 44 5.6 SW 22 30 12 16 1014.3 1013.7 0.0
26/11:00am 15.3 9.4 3.8 46 5.4 SW 24 33 13 18 1014.3 1013.7 0.0
26/10:30am 14.1 9.0 3.3 48 4.9 WSW 19 32 10 17 1014.1 1013.5 0.0
26/10:00am 13.2 7.9 3.0 50 4.6 SW 20 32 11 17 1014.1 1013.5 0.0
26/09:30am 13.2 7.2 3.6 52 4.4 WSW 24 32 13 17 1013.8 1013.2 0.0
26/09:00am 12.4 8.6 3.9 56 3.9 WSW 13 22 7 12 1013.6 1013.0 0.2
26/08:30am 11.4 8.4 3.9 60 3.4 WSW 9 17 5 9 1013.3 1012.7 0.2
26/08:00am 10.5 7.9 4.0 64 2.9 W 7 9 4 5 1013.0 1012.4 0.2
26/07:30am 9.6 6.2 4.2 69 2.4 W 11 17 6 9 1012.4 1011.8 0.2
26/07:00am 8.3 5.2 3.6 72 2.1 WNW 9 15 5 8 1012.0 1011.4 0.2
26/06:30am 8.1 3.4 3.2 71 2.1 W 17 20 9 11 1011.2 1010.6 0.2
26/06:00am 8.0 4.1 3.3 72 2.0 W 13 20 7 11 1010.7 1010.1 0.2
26/05:30am 8.4 5.2 3.3 70 2.2 W 9 17 5 9 1010.2 1009.6 0.2
26/05:00am 7.7 4.6 3.4 74 1.9 NW 9 11 5 6 1009.8 1009.2 0.2
26/04:30am 8.2 5.0 3.3 71 2.1 NW 9 17 5 9 1009.6 1009.0 0.2
26/04:00am 8.1 5.3 3.0 70 2.2 NW 7 13 4 7 1009.3 1008.7 0.2
26/03:30am 8.4 4.0 2.8 68 2.4 W 15 24 8 13 1008.9 1008.2 0.2
26/03:00am 7.9 5.1 3.0 71 2.1 WNW 7 11 4 6 1008.5 1007.8 0.2
26/02:30am 8.1 4.9 3.0 70 2.2 NW 9 17 5 9 1008.2 1007.6 0.2
26/02:00am 8.5 4.5 3.1 69 2.3 WNW 13 20 7 11 1008.2 1007.6 0.2
26/01:30am 8.5 3.2 3.1 69 2.3 W 20 33 11 18 1008.0 1007.4 0.2
26/01:00am 8.9 2.4 2.9 66 2.6 W 26 43 14 23 1007.8 1007.2 0.2
26/12:30am 8.6 2.5 3.0 68 2.4 W 24 35 13 19 1007.6 1007.0 0.2
26/12:00am 8.5 2.8 2.9 68 2.4 W 22 33 12 18 1007.7 1007.1 0.2
 
Date/Time
EDT
Temp
°C
App
Temp
°C
Dew
Point
Rel
Hum
%
Delta-T
°C
Wind Press
QNH
hPa
Press
MSL
hPa
Rain
since 9 am
mm
Dir
 
Spd
km/h
Gust
km/h
Spd
kts
Gust
kts
25/11:30pm 8.6 1.7 2.6 66 2.6 W 28 37 15 20 1007.6 1007.0 0.2
25/11:00pm 8.6 2.1 2.6 66 2.6 W 26 39 14 21 1007.4 1006.8 0.2
25/10:30pm 8.7 2.1 2.3 64 2.7 W 26 35 14 19 1007.1 1006.5 0.2
25/10:00pm 8.6 2.5 2.6 66 2.6 WSW 24 35 13 19 1007.0 1006.4 0.2
25/09:30pm 8.9 2.4 2.5 64 2.7 WSW 26 35 14 19 1006.7 1006.1 0.2
25/09:00pm 8.7 2.6 2.5 65 2.7 W 24 37 13 20 1006.3 1005.7 0.2
25/08:30pm 8.6 2.9 2.8 67 2.5 WSW 22 32 12 17 1006.0 1005.3 0.2
25/08:00pm 9.3 4.6 2.9 64 2.8 WSW 17 26 9 14 1005.7 1005.0 0.2
25/07:30pm 10.7 5.0 2.8 58 3.5 W 22 35 12 19 1005.1 1004.4 0.2
25/07:00pm 11.3 5.6 2.6 55 3.8 W 22 33 12 18 1004.6 1004.0 0.2
25/06:39pm 10.5 3.8 3.8 63 3.0 WSW 28 48 15 26 1004.3 1003.7 0.2
25/06:30pm 11.6 5.6 3.6 58 3.6 W 24 32 13 17 1004.1 1003.5 0.2
25/06:01pm 12.8 3.9 2.9 51 4.4 W 39 57 21 31 1003.7 1003.1 0.2
25/06:00pm 12.8 3.5 3.2 52 4.4 W 41 57 22 31 1003.7 1003.1 0.2
25/05:51pm 12.1 4.2 2.0 50 4.4 WSW 33 56 18 30 1003.3 1002.7 0.2
25/05:30pm 13.6 5.9 3.4 50 4.7 W 33 46 18 25 1003.0 1002.3 0.2
25/05:00pm 14.3 7.6 3.7 49 4.9 W 28 41 15 22 1002.8 1002.1 0.2
25/04:30pm 13.2 6.7 4.9 57 3.9 W 28 39 15 21 1002.7 1002.0 0.2
25/04:00pm 11.8 3.8 3.6 57 3.7 W 35 56 19 30 1002.8 1002.1 0.2
25/03:54pm 13.3 6.3 1.9 46 5.0 WSW 28 46 15 25 1002.3 1001.6 0.2
25/03:30pm 14.0 7.7 3.8 50 4.7 W 26 39 14 21 1002.2 1001.5 0.2
25/03:00pm 12.0 2.6 2.5 52 4.2 W 41 65 22 35 1002.7 1002.0 0.2
25/02:52pm 11.8 1.9 2.5 53 4.1 W 44 72 24 39 1002.5 1001.8 0.2
25/02:51pm 12.0 2.1 2.5 52 4.2 W 44 72 24 39 1002.5 1001.8 0.2
25/02:35pm 14.9 7.3 4.0 48 5.1 W 33 56 18 30 1002.2 1001.5 0.2
25/02:30pm 14.6 7.2 4.0 49 4.9 W 32 46 17 25 1002.1 1001.4 0.2
25/02:00pm 14.0 7.5 4.9 54 4.3 W 28 43 15 23 1001.7 1001.0 0.0
25/01:30pm 14.8 8.6 4.5 50 4.9 W 26 39 14 21 1001.4 1000.7 0.0
25/01:05pm 14.3 7.8 4.9 53 4.5 WNW 28 46 15 25 1001.3 1000.6 0.0
25/01:00pm 14.1 8.6 6.0 58 3.9 WNW 24 43 13 23 1001.4 1000.7 0.0
25/12:30pm 14.1 10.4 6.5 60 3.7 SW 15 24 8 13 1001.4 1000.7 0.0
25/12:00pm 13.7 6.4 4.6 54 4.3 WNW 32 46 17 25 1001.1 1000.5 0.0
25/11:30am 13.8 7.9 4.1 52 4.5 W 24 37 13 20 1000.9 1000.3 0.0
25/11:00am 12.0 6.2 6.3 68 2.8 WNW 26 39 14 21 1001.0 1000.4 0.0
25/10:30am 13.2 7.4 4.6 56 4.0 WSW 24 32 13 17 1000.9 1000.3 0.0
25/10:00am 12.9 6.5 5.3 60 3.6 WSW 28 39 15 21 1000.8 1000.2 0.0
25/09:30am 13.0 8.4 6.4 64 3.2 WSW 20 33 11 18 1000.5 999.9 0.0
25/09:00am 12.2 6.8 6.5 68 2.8 W 24 35 13 19 1000.3 999.7 3.2
25/08:30am 11.7 7.4 8.0 78 1.8 W 20 33 11 18 999.9 999.2 3.2
25/08:00am 10.8 8.1 8.9 88 1.0 W 13 17 7 9 999.5 998.8 3.2
25/07:30am 10.1 8.4 8.5 90 0.8 NW 7 9 4 5 999.5 998.8 3.2
25/07:00am 10.2 8.5 8.3 88 0.9 NNW 7 13 4 7 998.8 998.1 3.2
25/06:30am 10.8 8.0 8.6 86 1.1 W 13 24 7 13 998.9 998.2 2.0
25/06:00am 12.2 7.8 9.0 81 1.6 W 22 33 12 18 998.2 997.5 0.2
25/05:30am 12.7 11.9 10.9 89 1.0 WSW 6 11 3 6 997.5 996.9 0.0
25/05:00am 13.2 11.2 11.6 90 0.9 NW 13 17 7 9 997.8 997.1 0.0
25/04:30am 13.1 12.5 11.8 92 0.7 W 6 9 3 5 997.8 997.1 0.0
25/04:00am 13.1 12.3 11.8 92 0.7 NW 7 9 4 5 998.2 997.5 0.0
25/03:30am 13.3 11.9 12.2 93 0.6 NW 11 15 6 8 998.4 997.7 0.0
25/03:00am 12.8 11.6 11.5 92 0.7 NNW 9 13 5 7 998.9 998.2 0.0
25/02:30am 12.3 11.4 11.4 94 0.5 WNW 7 9 4 5 999.4 998.7 0.0
25/02:00am 11.9 10.9 11.0 94 0.5 NNW 7 9 4 5 999.9 999.2 0.0
25/01:30am 12.0 11.0 11.1 94 0.5 WNW 7 9 4 5 1000.4 999.8 0.0
25/01:00am 11.3 10.3 10.2 93 0.6 NNW 6 6 3 3 1001.0 1000.4 0.0
25/12:30am 11.9 10.4 10.6 92 0.7 NW 9 13 5 7 1001.7 1001.0 0.0
25/12:00am 12.4 10.6 11.0 91 0.7 NW 11 13 6 7 1001.8 1001.1 0.0
 
Date/Time
EDT
Temp
°C
App
Temp
°C
Dew
Point
Rel
Hum
%
Delta-T
°C
Wind Press
QNH
hPa
Press
MSL
hPa
Rain
since 9 am
mm
Dir
 
Spd
km/h
Gust
km/h
Spd
kts
Gust
kts
24/11:30pm 12.7 10.8 10.6 87 1.1 NW 11 15 6 8 1002.3 1001.6 0.0
24/11:00pm 13.2 11.0 10.7 85 1.3 WNW 13 19 7 10 1002.6 1001.9 0.0
24/10:30pm 13.5 12.4 10.7 83 1.5 NNW 7 9 4 5 1002.7 1002.0 0.0
24/10:00pm 13.7 11.8 10.5 81 1.7 NNW 11 15 6 8 1002.6 1001.9 0.0
24/09:30pm 13.9 12.8 10.5 80 1.8 N 7 9 4 5 1002.4 1001.7 0.0
24/09:00pm 14.0 10.9 10.2 78 2.0 NNW 17 24 9 13 1002.7 1002.0 0.0
24/08:30pm 14.1 10.9 9.9 76 2.2 NNW 17 26 9 14 1002.2 1001.5 0.0
24/08:00pm 14.9 11.3 9.7 71 2.7 NNW 19 24 10 13 1002.3 1001.6 0.0
24/07:30pm 15.5 11.2 9.4 67 3.2 NNW 22 32 12 17 1002.2 1001.5 0.0
24/07:00pm 16.6 12.8 9.1 61 4.0 NNW 19 28 10 15 1001.7 1001.0 0.0
24/06:30pm 16.4 11.5 8.6 60 4.0 NNW 24 33 13 18 1001.5 1000.8 0.0
24/06:00pm 17.9 14.0 9.5 58 4.5 N 20 32 11 17 1001.5 1000.8 0.0
24/05:30pm 17.6 12.6 9.5 59 4.3 NNW 26 35 14 19 1001.8 1001.1 0.0
24/05:00pm 16.7 11.9 8.9 60 4.1 NNW 24 33 13 18 1002.1 1001.4 0.0
24/04:30pm 18.2 13.5 9.3 56 4.7 NNW 24 41 13 22 1002.6 1001.9 0.0
24/04:00pm 18.7 13.8 9.8 56 4.8 NNW 26 35 14 19 1002.8 1002.1 0.0
24/03:30pm 17.9 12.8 9.3 57 4.6 NNW 26 35 14 19 1003.0 1002.3 0.0
24/03:00pm 17.3 12.9 9.0 58 4.4 N 22 32 12 17 1003.4 1002.8 0.0
24/02:30pm 18.2 13.9 9.3 56 4.7 N 22 30 12 16 1003.4 1002.8 0.0
24/02:00pm 18.3 14.2 8.8 54 5.0 NNW 20 30 11 16 1003.9 1003.3 0.0
24/01:30pm 16.6 12.5 7.8 56 4.5 NNW 19 28 10 15 1004.2 1003.6 0.0
24/01:00pm 17.7 14.0 8.0 53 5.0 NNW 17 28 9 15 1004.2 1003.6 0.0
24/12:30pm 16.4 13.3 7.3 55 4.6 NW 13 20 7 11 1005.0 1004.3 0.0
24/12:00pm 16.4 12.1 7.1 54 4.7 NW 19 26 10 14 1005.2 1004.5 0.0
24/11:30am 18.1 14.0 7.8 51 5.3 NW 19 32 10 17 1005.3 1004.6 0.0
24/11:00am 16.6 12.3 7.0 53 4.9 NNW 19 30 10 16 1005.3 1004.6 0.0
24/10:30am 15.6 11.9 6.3 54 4.6 NW 15 26 8 14 1005.6 1004.9 0.0
24/10:00am 14.5 12.2 7.3 62 3.6 W 9 15 5 8 1006.0 1005.3 0.0
24/09:30am 14.2 12.0 7.9 66 3.2 NNW 9 17 5 9 1006.2 1005.6 0.0
24/09:00am 13.1 11.5 8.0 71 2.6 N 6 9 3 5 1006.4 1005.8 0.0
24/08:30am 12.2 11.3 7.9 75 2.1 NNW 2 4 1 2 1006.3 1005.7 0.0
24/08:00am 10.2 8.8 7.4 83 1.4 WNW 4 6 2 3 1006.2 1005.6 0.0
24/07:30am 8.3 7.0 6.1 86 1.0 WSW 2 6 1 3 1005.8 1005.1 0.0
24/07:00am 8.1 6.9 6.4 89 0.8 ESE 2 4 1 2 1005.8 1005.1 0.0
24/06:30am 6.7 4.4 5.0 89 0.8 ESE 6 7 3 4 1006.0 1005.3 0.0
24/06:00am 6.8 4.5 5.0 88 0.8 SE 6 7 3 4 1005.6 1004.9 0.0
24/05:30am 7.1 4.8 4.6 84 1.1 SE 6 7 3 4 1005.5 1004.8 0.0

Other Formats:

Comma delimited format used in spreadsheet applications
http://www.bom.gov.au/fwo/IDT60801/IDT60801.94955.axf

JavaScript Object Notation format (JSON) in row-major order
http://www.bom.gov.au/fwo/IDT60801/IDT60801.94955.json